createdAt,value
2023-03-17T00:00:21.425Z,13.53
2023-03-17T00:00:53.408Z,12.87
2023-03-17T00:01:25.699Z,14.60
2023-03-17T00:01:58.145Z,17.10
2023-03-17T00:02:29.976Z,19.20
2023-03-17T00:03:03.197Z,23.57
2023-03-17T00:03:40.536Z,24.90
2023-03-17T00:04:13.289Z,25.30
2023-03-17T00:04:45.244Z,25.20
2023-03-17T00:05:25.659Z,23.43
2023-03-17T00:05:59.939Z,17.17
2023-03-17T00:06:33.890Z,13.33
2023-03-17T00:07:06.425Z,11.23
2023-03-17T00:07:38.233Z,9.93
2023-03-17T00:08:20.938Z,10.17
2023-03-17T00:08:53.287Z,10.00
2023-03-17T00:09:25.453Z,10.20
2023-03-17T00:09:57.157Z,8.53
2023-03-17T00:10:29.086Z,9.10
2023-03-17T00:11:01.204Z,9.00
2023-03-17T00:11:32.926Z,8.37
2023-03-17T00:12:10.736Z,8.20
2023-03-17T00:12:42.643Z,8.47
2023-03-17T00:13:14.651Z,8.33
2023-03-17T00:13:46.394Z,8.80
2023-03-17T00:14:19.836Z,8.83
2023-03-17T00:14:51.677Z,8.87
2023-03-17T00:15:26.904Z,10.83
2023-03-17T00:16:05.325Z,12.23
2023-03-17T00:16:43.116Z,12.83
2023-03-17T00:17:15.177Z,12.23
2023-03-17T00:17:48.603Z,13.63
2023-03-17T00:18:21.178Z,13.17
2023-03-17T00:18:55.031Z,14.10
2023-03-17T00:19:32.324Z,15.50
2023-03-17T00:20:06.027Z,15.30
2023-03-17T00:20:43.848Z,16.33
2023-03-17T00:21:22.705Z,15.33
2023-03-17T00:21:55.105Z,15.40
2023-03-17T00:22:27.392Z,13.47
2023-03-17T00:23:04.184Z,13.13
2023-03-17T00:23:36.502Z,11.77
2023-03-17T00:24:13.610Z,12.27
2023-03-17T00:24:46.564Z,10.40
2023-03-17T00:25:23.367Z,9.77
2023-03-17T00:25:55.321Z,10.73
2023-03-17T00:26:27.901Z,10.30
2023-03-17T00:26:59.785Z,9.73
2023-03-17T00:27:31.533Z,12.23
2023-03-17T00:28:04.776Z,15.67
2023-03-17T00:28:36.527Z,16.97
2023-03-17T00:29:09.093Z,15.70
2023-03-17T00:29:41.398Z,13.17
2023-03-17T00:30:13.318Z,14.57
2023-03-17T00:30:46.306Z,14.00
2023-03-17T00:31:29.763Z,14.27
2023-03-17T00:32:02.437Z,13.50
2023-03-17T00:32:34.731Z,14.93
2023-03-17T00:33:07.654Z,17.57
2023-03-17T00:33:39.888Z,18.13
2023-03-17T00:34:16.825Z,16.57
2023-03-17T00:34:48.759Z,12.37
2023-03-17T00:35:24.739Z,11.13
2023-03-17T00:35:58.752Z,10.60
2023-03-17T00:36:33.041Z,10.33
2023-03-17T00:37:04.827Z,10.63
2023-03-17T00:37:37.742Z,11.43
2023-03-17T00:38:21.514Z,10.67
2023-03-17T00:38:53.265Z,10.47
2023-03-17T00:39:25.549Z,12.27
2023-03-17T00:39:57.388Z,11.83
2023-03-17T00:40:31.413Z,12.07
2023-03-17T00:41:04.608Z,12.90
2023-03-17T00:41:36.371Z,14.40
2023-03-17T00:42:08.330Z,15.43
2023-03-17T00:42:40.733Z,14.30
2023-03-17T00:43:13.722Z,14.30
2023-03-17T00:43:45.771Z,12.67
2023-03-17T00:44:18.609Z,13.67
2023-03-17T00:44:50.705Z,13.43
2023-03-17T00:45:24.964Z,13.83
2023-03-17T00:45:57.413Z,12.67
2023-03-17T00:46:35.995Z,10.73
2023-03-17T00:47:11.902Z,12.33
2023-03-17T00:47:45.494Z,13.90
2023-03-17T00:48:20.857Z,14.77
2023-03-17T00:48:52.963Z,13.47
2023-03-17T00:49:26.380Z,13.03
2023-03-17T00:49:58.652Z,13.77
2023-03-17T00:50:30.555Z,12.77
2023-03-17T00:51:02.708Z,13.80
2023-03-17T00:51:34.501Z,15.13
2023-03-17T00:52:06.304Z,15.93
2023-03-17T00:52:38.950Z,17.13
2023-03-17T00:53:18.277Z,17.37
2023-03-17T00:53:50.027Z,15.87
2023-03-17T00:54:22.134Z,14.63
2023-03-17T00:54:54.372Z,13.40
2023-03-17T00:55:26.820Z,13.53
2023-03-17T00:55:59.235Z,11.87
2023-03-17T00:56:31.572Z,12.80
2023-03-17T00:57:03.377Z,12.37
2023-03-17T00:57:37.263Z,12.50
2023-03-17T00:58:27.082Z,12.27
2023-03-17T00:58:58.856Z,10.83
2023-03-17T00:59:39.242Z,10.40
2023-03-17T01:00:21.660Z,10.27
2023-03-17T01:00:53.914Z,10.60
2023-03-17T01:01:25.733Z,10.43
2023-03-17T01:01:58.357Z,10.57
2023-03-17T01:02:31.040Z,10.50
2023-03-17T01:03:03.713Z,9.77
2023-03-17T01:03:36.784Z,10.10
2023-03-17T01:04:10.862Z,9.20
2023-03-17T01:04:49.867Z,8.83
2023-03-17T01:05:26.242Z,8.80
2023-03-17T01:05:58.066Z,9.10
2023-03-17T01:06:29.861Z,9.17
2023-03-17T01:07:02.103Z,8.93
2023-03-17T01:07:33.970Z,8.87
2023-03-17T01:08:06.561Z,8.70
2023-03-17T01:08:40.679Z,9.10
2023-03-17T01:09:15.699Z,9.63
2023-03-17T01:09:47.421Z,10.60
2023-03-17T01:10:24.038Z,11.40
2023-03-17T01:10:56.807Z,10.83
2023-03-17T01:11:28.555Z,10.20
2023-03-17T01:12:00.783Z,10.50
2023-03-17T01:12:33.193Z,11.13
2023-03-17T01:13:07.018Z,10.67
2023-03-17T01:13:38.761Z,9.50
2023-03-17T01:14:12.545Z,9.03
2023-03-17T01:14:44.299Z,8.83
2023-03-17T01:15:17.550Z,8.47
2023-03-17T01:15:51.052Z,10.17
2023-03-17T01:16:23.645Z,9.27
2023-03-17T01:16:55.476Z,8.47
2023-03-17T01:17:27.253Z,8.17
2023-03-17T01:18:00.470Z,8.80
2023-03-17T01:18:32.880Z,9.33
2023-03-17T01:19:05.016Z,9.40
2023-03-17T01:19:37.560Z,9.77
2023-03-17T01:20:17.699Z,9.93
2023-03-17T01:20:50.831Z,11.77
2023-03-17T01:21:22.672Z,11.37
2023-03-17T01:21:54.468Z,12.00
2023-03-17T01:22:26.284Z,11.93
2023-03-17T01:22:58.137Z,11.47
2023-03-17T01:23:29.917Z,10.47
2023-03-17T01:24:01.701Z,10.63
2023-03-17T01:24:33.448Z,9.70
2023-03-17T01:25:05.677Z,10.33
2023-03-17T01:25:39.037Z,11.13
2023-03-17T01:26:10.750Z,10.53
2023-03-17T01:26:42.542Z,9.93
2023-03-17T01:27:14.389Z,9.57
2023-03-17T01:27:47.502Z,10.07
2023-03-17T01:28:20.192Z,9.47
2023-03-17T01:28:52.103Z,9.13
2023-03-17T01:29:24.129Z,10.20
2023-03-17T01:29:55.924Z,10.13
2023-03-17T01:30:32.883Z,8.97
2023-03-17T01:31:05.181Z,8.70
2023-03-17T01:31:37.574Z,8.23
2023-03-17T01:32:09.469Z,7.60
2023-03-17T01:32:41.278Z,8.07
2023-03-17T01:33:14.782Z,6.97
2023-03-17T01:33:47.469Z,7.87
2023-03-17T01:34:19.385Z,8.37
2023-03-17T01:34:51.281Z,8.57
2023-03-17T01:35:25.866Z,9.23
2023-03-17T01:35:57.665Z,8.63
2023-03-17T01:36:29.452Z,8.47
2023-03-17T01:37:01.763Z,8.90
2023-03-17T01:37:33.533Z,11.20
2023-03-17T01:38:06.631Z,12.23
2023-03-17T01:38:38.492Z,14.13
2023-03-17T01:39:10.408Z,14.77
2023-03-17T01:39:42.184Z,14.10
2023-03-17T01:40:19.039Z,15.37
2023-03-17T01:40:52.067Z,14.90
2023-03-17T01:41:23.868Z,11.90
2023-03-17T01:42:01.361Z,11.10
2023-03-17T01:42:33.496Z,10.13
2023-03-17T01:43:10.907Z,9.87
2023-03-17T01:43:42.756Z,10.27
2023-03-17T01:44:18.531Z,10.23
2023-03-17T01:44:58.178Z,9.13
2023-03-17T01:46:07.421Z,10.67
2023-03-17T01:46:39.317Z,9.20
2023-03-17T01:47:11.072Z,8.60
2023-03-17T01:47:42.838Z,8.60
2023-03-17T01:48:15.396Z,8.40
2023-03-17T01:49:05.898Z,8.10
2023-03-17T01:49:38.895Z,7.47
2023-03-17T01:50:11.171Z,7.00
2023-03-17T01:50:46.902Z,7.53
2023-03-17T01:51:31.368Z,6.77
2023-03-17T01:52:10.390Z,6.73
2023-03-17T01:52:42.290Z,5.57
2023-03-17T01:53:15.575Z,6.00
2023-03-17T01:53:52.542Z,6.73
2023-03-17T01:54:56.312Z,5.97
2023-03-17T01:55:28.091Z,6.17
2023-03-17T01:56:00.362Z,5.97
2023-03-17T01:56:33.264Z,6.00
2023-03-17T01:57:16.636Z,6.43
2023-03-17T01:57:53.576Z,5.90
2023-03-17T01:58:26.709Z,6.10
2023-03-17T01:59:03.148Z,6.43
2023-03-17T01:59:39.608Z,6.17
2023-03-17T02:00:16.267Z,5.50
2023-03-17T02:00:48.059Z,5.73
2023-03-17T02:01:27.510Z,6.00
2023-03-17T02:02:06.557Z,5.87
2023-03-17T02:02:41.975Z,6.10
2023-03-17T02:03:13.757Z,6.20
2023-03-17T02:03:46.148Z,6.03
2023-03-17T02:04:19.751Z,5.80
2023-03-17T02:04:52.755Z,6.17
2023-03-17T02:05:31.130Z,6.13
2023-03-17T02:06:04.979Z,5.13
2023-03-17T02:06:42.135Z,5.07
2023-03-17T02:07:21.801Z,5.33
2023-03-17T02:07:54.619Z,5.33
2023-03-17T02:08:26.440Z,5.77
2023-03-17T02:08:59.609Z,6.30
2023-03-17T02:09:33.072Z,6.13
2023-03-17T02:10:07.015Z,6.00
2023-03-17T02:10:40.905Z,5.97
2023-03-17T02:11:12.706Z,6.23
2023-03-17T02:11:45.999Z,5.57
2023-03-17T02:12:18.569Z,5.20
2023-03-17T02:12:57.069Z,5.23
2023-03-17T02:13:29.483Z,5.13
2023-03-17T02:14:01.894Z,5.73
2023-03-17T02:14:34.241Z,5.70
2023-03-17T02:15:08.024Z,5.73
2023-03-17T02:15:51.576Z,5.80
2023-03-17T02:16:23.453Z,5.43
2023-03-17T02:16:55.272Z,5.83
2023-03-17T02:17:28.957Z,5.67
2023-03-17T02:18:01.205Z,5.90
2023-03-17T02:18:34.182Z,5.30
2023-03-17T02:19:06.081Z,5.23
2023-03-17T02:19:39.002Z,5.33
2023-03-17T02:20:17.193Z,5.80
2023-03-17T02:20:48.908Z,5.90
2023-03-17T02:21:38.638Z,4.97
2023-03-17T02:22:11.481Z,5.33
2023-03-17T02:22:50.379Z,5.20
2023-03-17T02:23:23.787Z,5.33
2023-03-17T02:23:56.785Z,5.57
2023-03-17T02:24:34.887Z,5.50
2023-03-17T02:25:07.756Z,5.20
2023-03-17T02:25:40.595Z,5.40
2023-03-17T02:26:12.765Z,5.53
2023-03-17T02:26:46.311Z,5.27
2023-03-17T02:27:33.950Z,5.47
2023-03-17T02:28:16.342Z,5.67
2023-03-17T02:28:48.266Z,6.37
2023-03-17T02:29:22.805Z,6.47
2023-03-17T02:29:54.604Z,5.03
2023-03-17T02:30:26.785Z,4.83
2023-03-17T02:30:58.705Z,5.37
2023-03-17T02:31:30.506Z,4.93
2023-03-17T02:32:02.679Z,5.40
2023-03-17T02:32:37.919Z,5.47
2023-03-17T02:33:12.037Z,4.97
2023-03-17T02:33:44.007Z,4.63
2023-03-17T02:34:16.058Z,5.27
2023-03-17T02:34:48.792Z,5.27
2023-03-17T02:35:20.753Z,5.63
2023-03-17T02:35:53.029Z,5.97
2023-03-17T02:36:25.190Z,5.40
2023-03-17T02:36:57.232Z,4.60
2023-03-17T02:37:29.301Z,4.97
2023-03-17T02:38:01.241Z,5.60
2023-03-17T02:38:33.078Z,5.27
2023-03-17T02:39:05.414Z,5.73
2023-03-17T02:39:37.558Z,5.17
2023-03-17T02:40:11.476Z,5.27
2023-03-17T02:40:43.276Z,4.93
2023-03-17T02:41:15.076Z,5.23
2023-03-17T02:41:47.170Z,5.47
2023-03-17T02:42:18.881Z,5.53
2023-03-17T02:42:51.407Z,5.30
2023-03-17T02:43:23.300Z,5.33
2023-03-17T02:43:55.148Z,4.63
2023-03-17T02:44:27.229Z,4.97
2023-03-17T02:44:59.678Z,4.77
2023-03-17T02:45:31.979Z,4.70
2023-03-17T02:46:05.815Z,5.00
2023-03-17T02:46:37.556Z,4.70
2023-03-17T02:47:09.680Z,4.07
2023-03-17T02:47:42.730Z,5.13
2023-03-17T02:48:14.919Z,5.67
2023-03-17T02:48:47.076Z,5.23
2023-03-17T02:49:19.463Z,4.93
2023-03-17T02:49:51.922Z,5.27
2023-03-17T02:50:28.907Z,4.87
2023-03-17T02:51:01.025Z,5.40
2023-03-17T02:51:33.154Z,5.07
2023-03-17T02:52:06.195Z,5.17
2023-03-17T02:52:37.954Z,5.33
2023-03-17T02:53:09.789Z,4.67
2023-03-17T02:53:41.578Z,5.13
2023-03-17T02:54:13.418Z,5.00
2023-03-17T02:54:45.276Z,5.57
2023-03-17T02:55:17.974Z,5.00
2023-03-17T02:55:49.791Z,5.57
2023-03-17T02:56:21.585Z,5.73
2023-03-17T02:56:53.353Z,4.70
2023-03-17T02:57:25.102Z,4.93
2023-03-17T02:57:56.837Z,5.50
2023-03-17T02:58:28.586Z,5.23
2023-03-17T02:59:00.472Z,4.93
2023-03-17T02:59:32.398Z,4.90
2023-03-17T03:00:04.878Z,4.87
2023-03-17T03:00:36.806Z,5.13
2023-03-17T03:01:09.761Z,5.13
2023-03-17T03:01:41.647Z,5.20
2023-03-17T03:02:14.380Z,4.83
2023-03-17T03:02:46.439Z,4.57
2023-03-17T03:03:18.225Z,5.03
2023-03-17T03:03:50.243Z,4.90
2023-03-17T03:04:22.871Z,5.13
2023-03-17T03:04:54.735Z,5.30
2023-03-17T03:05:26.723Z,5.00
2023-03-17T03:05:59.756Z,5.37
2023-03-17T03:06:33.148Z,5.70
2023-03-17T03:07:05.155Z,5.43
2023-03-17T03:07:37.026Z,5.60
2023-03-17T03:08:09.304Z,5.47
2023-03-17T03:08:41.303Z,5.40
2023-03-17T03:09:14.711Z,5.00
2023-03-17T03:09:47.274Z,4.83
2023-03-17T03:10:19.327Z,4.63
2023-03-17T03:10:51.084Z,4.50
2023-03-17T03:11:23.318Z,4.60
2023-03-17T03:11:55.201Z,5.27
2023-03-17T03:12:26.938Z,5.37
2023-03-17T03:12:58.666Z,5.33
2023-03-17T03:13:31.301Z,5.03
2023-03-17T03:14:03.588Z,4.70
2023-03-17T03:14:35.680Z,4.97
2023-03-17T03:15:09.785Z,5.47
2023-03-17T03:15:42.990Z,5.30
2023-03-17T03:16:15.388Z,5.17
2023-03-17T03:16:47.639Z,5.40
2023-03-17T03:17:20.589Z,5.30
2023-03-17T03:17:52.307Z,5.90
2023-03-17T03:18:24.137Z,5.60
2023-03-17T03:18:56.164Z,5.03
2023-03-17T03:19:28.397Z,5.40
2023-03-17T03:20:00.201Z,5.00
2023-03-17T03:20:32.471Z,5.63
2023-03-17T03:21:22.926Z,5.07
2023-03-17T03:21:54.647Z,5.43
2023-03-17T03:22:26.426Z,5.17
2023-03-17T03:22:58.233Z,5.13
2023-03-17T03:23:29.988Z,5.00
2023-03-17T03:24:01.754Z,5.37
2023-03-17T03:24:33.493Z,5.07
2023-03-17T03:25:07.661Z,5.43
2023-03-17T03:25:39.698Z,5.90
2023-03-17T03:26:12.226Z,5.07
2023-03-17T03:26:44.015Z,5.30
2023-03-17T03:27:17.040Z,5.23
2023-03-17T03:27:48.781Z,4.97
2023-03-17T03:28:20.682Z,5.03
2023-03-17T03:28:52.487Z,5.53
2023-03-17T03:29:24.358Z,5.63
2023-03-17T03:29:56.759Z,5.30
2023-03-17T03:30:28.901Z,5.33
2023-03-17T03:31:01.016Z,5.13
2023-03-17T03:31:32.877Z,5.53
2023-03-17T03:32:04.897Z,5.53
2023-03-17T03:32:36.718Z,5.30
2023-03-17T03:33:08.715Z,4.83
2023-03-17T03:33:41.743Z,5.40
2023-03-17T03:34:13.477Z,5.80
2023-03-17T03:34:45.246Z,5.73
2023-03-17T03:35:17.046Z,5.17
2023-03-17T03:35:49.181Z,5.23
2023-03-17T03:36:21.776Z,5.13
2023-03-17T03:36:53.748Z,5.77
2023-03-17T03:37:26.702Z,5.27
2023-03-17T03:37:59.775Z,4.93
2023-03-17T03:38:31.835Z,5.27
2023-03-17T03:39:03.657Z,5.33
2023-03-17T03:39:35.432Z,5.40
2023-03-17T03:40:07.749Z,5.47
2023-03-17T03:40:39.978Z,5.23
2023-03-17T03:41:11.811Z,5.63
2023-03-17T03:41:43.618Z,5.67
2023-03-17T03:42:16.529Z,5.27
2023-03-17T03:42:48.347Z,5.30
2023-03-17T03:43:23.730Z,5.30
2023-03-17T03:43:55.736Z,5.37
2023-03-17T03:44:27.460Z,5.63
2023-03-17T03:44:59.208Z,5.83
2023-03-17T03:45:31.506Z,5.43
2023-03-17T03:46:05.161Z,5.40
2023-03-17T03:46:37.059Z,5.00
2023-03-17T03:47:08.978Z,5.27
2023-03-17T03:47:40.969Z,5.03
2023-03-17T03:48:12.825Z,5.13
2023-03-17T03:48:44.659Z,5.40
2023-03-17T03:49:16.586Z,5.37
2023-03-17T03:49:48.415Z,5.23
2023-03-17T03:50:20.158Z,4.83
2023-03-17T03:50:57.141Z,5.23
2023-03-17T03:51:28.898Z,5.07
2023-03-17T03:52:00.635Z,5.27
2023-03-17T03:52:32.891Z,5.27
2023-03-17T03:53:05.157Z,5.63
2023-03-17T03:53:37.941Z,5.27
2023-03-17T03:54:09.738Z,5.87
2023-03-17T03:54:41.453Z,6.00
2023-03-17T03:55:13.748Z,5.30
2023-03-17T03:55:45.795Z,5.20
2023-03-17T03:56:17.636Z,5.47
2023-03-17T03:56:49.423Z,5.50
2023-03-17T03:57:21.133Z,5.20
2023-03-17T03:57:53.186Z,4.50
2023-03-17T03:58:25.058Z,4.87
2023-03-17T03:58:57.221Z,5.47
2023-03-17T03:59:30.439Z,5.50
2023-03-17T04:00:02.888Z,5.27
2023-03-17T04:00:34.703Z,5.37
2023-03-17T04:01:09.568Z,5.27
2023-03-17T04:01:41.684Z,5.50
2023-03-17T04:02:13.449Z,5.30
2023-03-17T04:02:46.802Z,5.57
2023-03-17T04:03:18.827Z,4.80
2023-03-17T04:03:51.372Z,4.80
2023-03-17T04:04:23.808Z,5.33
2023-03-17T04:04:55.710Z,4.97
2023-03-17T04:05:27.511Z,4.80
2023-03-17T04:05:59.565Z,5.03
2023-03-17T04:06:49.920Z,5.47
2023-03-17T04:07:21.683Z,4.80
2023-03-17T04:07:54.212Z,5.27
2023-03-17T04:08:26.111Z,5.33
2023-03-17T04:08:58.533Z,5.47
2023-03-17T04:09:30.324Z,4.53
2023-03-17T04:10:02.567Z,5.40
2023-03-17T04:10:34.334Z,5.70
2023-03-17T04:11:06.378Z,5.50
2023-03-17T04:11:38.170Z,5.60
2023-03-17T04:12:10.507Z,5.20
2023-03-17T04:12:43.032Z,5.03
2023-03-17T04:13:15.447Z,5.67
2023-03-17T04:13:47.247Z,5.70
2023-03-17T04:14:19.122Z,5.10
2023-03-17T04:14:51.003Z,4.90
2023-03-17T04:15:23.137Z,5.37
2023-03-17T04:15:54.925Z,5.77
2023-03-17T04:16:27.185Z,5.73
2023-03-17T04:16:59.083Z,5.37
2023-03-17T04:17:30.785Z,5.27
2023-03-17T04:18:03.144Z,5.23
2023-03-17T04:18:35.754Z,5.30
2023-03-17T04:19:07.729Z,5.03
2023-03-17T04:19:39.739Z,5.10
2023-03-17T04:20:13.196Z,5.07
2023-03-17T04:20:44.955Z,5.37
2023-03-17T04:21:19.031Z,4.97
2023-03-17T04:21:53.549Z,4.40
2023-03-17T04:22:26.431Z,5.67
2023-03-17T04:22:58.189Z,5.80
2023-03-17T04:23:31.568Z,6.07
2023-03-17T04:24:05.287Z,5.20
2023-03-17T04:24:37.260Z,5.40
2023-03-17T04:25:10.875Z,5.10
2023-03-17T04:25:42.866Z,4.90
2023-03-17T04:26:14.678Z,5.47
2023-03-17T04:26:46.605Z,4.93
2023-03-17T04:27:18.749Z,4.67
2023-03-17T04:27:50.478Z,5.27
2023-03-17T04:28:22.629Z,5.23
2023-03-17T04:28:54.795Z,5.37
2023-03-17T04:29:26.922Z,5.20
2023-03-17T04:29:58.727Z,5.40
2023-03-17T04:30:30.764Z,5.20
2023-03-17T04:31:02.575Z,4.90
2023-03-17T04:31:37.754Z,4.97
2023-03-17T04:32:11.773Z,4.73
2023-03-17T04:32:44.307Z,5.37
2023-03-17T04:33:16.106Z,5.03
2023-03-17T04:33:48.081Z,5.00
2023-03-17T04:34:19.901Z,5.17
2023-03-17T04:34:51.683Z,4.60
2023-03-17T04:35:23.414Z,5.00
2023-03-17T04:35:55.268Z,5.17
2023-03-17T04:36:27.194Z,5.30
2023-03-17T04:36:58.965Z,5.53
2023-03-17T04:37:32.826Z,5.73
2023-03-17T04:38:05.925Z,5.00
2023-03-17T04:38:37.645Z,5.10
2023-03-17T04:39:10.293Z,4.83
2023-03-17T04:39:42.247Z,5.03
2023-03-17T04:40:16.216Z,5.20
2023-03-17T04:40:47.962Z,5.03
2023-03-17T04:41:21.405Z,4.77
2023-03-17T04:41:53.281Z,4.83
2023-03-17T04:42:25.043Z,4.77
2023-03-17T04:42:56.803Z,6.20
2023-03-17T04:43:28.538Z,5.87
2023-03-17T04:44:02.560Z,4.97
2023-03-17T04:44:34.789Z,4.80
2023-03-17T04:45:09.518Z,5.10
2023-03-17T04:45:41.402Z,5.90
2023-03-17T04:46:14.314Z,5.27
2023-03-17T04:46:46.772Z,5.33
2023-03-17T04:47:18.493Z,5.00
2023-03-17T04:47:50.253Z,5.03
2023-03-17T04:48:21.982Z,4.97
2023-03-17T04:48:54.178Z,5.07
2023-03-17T04:49:26.241Z,4.90
2023-03-17T04:49:58.050Z,5.07
2023-03-17T04:50:30.031Z,4.83
2023-03-17T04:51:02.213Z,4.87
2023-03-17T04:51:36.809Z,4.90
2023-03-17T04:52:08.726Z,5.00
2023-03-17T04:52:41.324Z,4.63
2023-03-17T04:53:13.073Z,4.77
2023-03-17T04:53:45.262Z,4.97
2023-03-17T04:54:17.224Z,4.97
2023-03-17T04:54:48.980Z,5.13
2023-03-17T04:55:21.262Z,4.77
2023-03-17T04:55:53.121Z,5.30
2023-03-17T04:56:24.890Z,4.80
2023-03-17T04:56:56.615Z,4.97
2023-03-17T04:57:28.341Z,4.63
2023-03-17T04:58:00.257Z,4.87
2023-03-17T04:58:31.985Z,4.90
2023-03-17T04:59:04.230Z,5.07
2023-03-17T04:59:36.012Z,5.07
2023-03-17T05:00:08.591Z,4.87
2023-03-17T05:00:40.493Z,4.90
2023-03-17T05:01:12.369Z,4.80
2023-03-17T05:01:44.324Z,5.03
2023-03-17T05:02:16.110Z,5.77
2023-03-17T05:02:47.910Z,5.20
2023-03-17T05:03:26.773Z,5.07
2023-03-17T05:03:59.238Z,5.10
2023-03-17T05:04:32.435Z,5.50
2023-03-17T05:05:04.896Z,5.03
2023-03-17T05:05:38.116Z,4.80
2023-03-17T05:06:09.850Z,5.20
2023-03-17T05:06:41.631Z,5.03
2023-03-17T05:07:13.793Z,4.37
2023-03-17T05:07:45.643Z,4.73
2023-03-17T05:08:17.468Z,5.17
2023-03-17T05:08:49.291Z,4.63
2023-03-17T05:09:21.049Z,4.83
2023-03-17T05:09:52.786Z,5.10
2023-03-17T05:10:24.898Z,4.83
2023-03-17T05:10:58.506Z,5.27
2023-03-17T05:11:30.223Z,4.80
2023-03-17T05:12:01.992Z,5.27
2023-03-17T05:12:33.775Z,5.07
2023-03-17T05:13:05.624Z,4.73
2023-03-17T05:13:37.420Z,5.13
2023-03-17T05:14:09.161Z,5.20
2023-03-17T05:14:41.692Z,5.10
2023-03-17T05:15:13.518Z,4.73
2023-03-17T05:15:49.994Z,4.67
2023-03-17T05:16:22.147Z,4.77
2023-03-17T05:16:53.993Z,4.60
2023-03-17T05:17:25.906Z,5.20
2023-03-17T05:17:57.757Z,5.20
2023-03-17T05:18:29.771Z,5.67
2023-03-17T05:19:01.542Z,4.97
2023-03-17T05:19:33.506Z,5.60
2023-03-17T05:20:05.903Z,5.47
2023-03-17T05:20:37.627Z,4.87
2023-03-17T05:21:09.589Z,6.10
2023-03-17T05:21:41.559Z,5.70
2023-03-17T05:22:13.314Z,5.57
2023-03-17T05:22:45.090Z,4.97
2023-03-17T05:23:16.924Z,5.27
2023-03-17T05:23:49.053Z,5.10
2023-03-17T05:24:21.058Z,4.57
2023-03-17T05:24:52.802Z,4.77
2023-03-17T05:25:24.527Z,5.23
2023-03-17T05:25:56.277Z,5.53
2023-03-17T05:26:28.456Z,4.53
2023-03-17T05:27:00.701Z,5.07
2023-03-17T05:27:33.068Z,5.33
2023-03-17T05:28:04.905Z,5.33
2023-03-17T05:28:36.791Z,5.00
2023-03-17T05:29:09.148Z,5.23
2023-03-17T05:29:40.924Z,5.47
2023-03-17T05:30:13.000Z,5.57
2023-03-17T05:30:45.967Z,5.63
2023-03-17T05:31:19.302Z,5.10
2023-03-17T05:31:51.118Z,5.40
2023-03-17T05:32:23.219Z,5.60
2023-03-17T05:32:55.067Z,5.20
2023-03-17T05:33:27.735Z,5.10
2023-03-17T05:33:59.788Z,5.13
2023-03-17T05:34:32.213Z,5.30
2023-03-17T05:35:04.190Z,5.33
2023-03-17T05:35:36.029Z,5.37
2023-03-17T05:36:08.132Z,5.30
2023-03-17T05:36:40.063Z,5.13
2023-03-17T05:37:12.886Z,4.80
2023-03-17T05:37:45.247Z,5.00
2023-03-17T05:38:17.446Z,5.40
2023-03-17T05:38:49.217Z,5.30
2023-03-17T05:39:20.962Z,5.37
2023-03-17T05:39:53.841Z,5.37
2023-03-17T05:40:26.426Z,5.33
2023-03-17T05:40:58.206Z,5.60
2023-03-17T05:41:30.284Z,6.00
2023-03-17T05:42:02.346Z,6.03
2023-03-17T05:42:34.101Z,6.07
2023-03-17T05:43:06.107Z,5.70
2023-03-17T05:43:37.862Z,5.27
2023-03-17T05:44:10.452Z,5.30
2023-03-17T05:44:42.220Z,5.33
2023-03-17T05:45:13.987Z,5.70
2023-03-17T05:45:47.342Z,6.23
2023-03-17T05:46:20.438Z,5.60
2023-03-17T05:46:52.444Z,5.83
2023-03-17T05:47:24.225Z,6.00
2023-03-17T05:47:56.238Z,6.27
2023-03-17T05:48:27.944Z,7.77
2023-03-17T05:48:59.730Z,7.63
2023-03-17T05:49:31.652Z,7.27
2023-03-17T05:50:04.943Z,6.97
2023-03-17T05:50:36.659Z,6.67
2023-03-17T05:51:08.438Z,7.43
2023-03-17T05:51:41.965Z,7.33
2023-03-17T05:52:14.269Z,7.43
2023-03-17T05:52:47.768Z,7.53
2023-03-17T05:53:19.491Z,6.90
2023-03-17T05:53:51.651Z,7.07
2023-03-17T05:54:24.227Z,7.83
2023-03-17T05:54:55.967Z,7.60
2023-03-17T05:55:27.698Z,7.53
2023-03-17T05:55:59.501Z,7.90
2023-03-17T05:56:33.870Z,8.47
2023-03-17T05:57:06.861Z,7.90
2023-03-17T05:57:38.730Z,8.17
2023-03-17T05:58:11.037Z,7.43
2023-03-17T05:58:42.821Z,7.40
2023-03-17T05:59:18.512Z,7.57
2023-03-17T05:59:51.069Z,7.00
2023-03-17T06:00:23.290Z,7.00
2023-03-17T06:00:55.336Z,7.03
2023-03-17T06:01:27.880Z,8.50
2023-03-17T06:02:18.270Z,9.17
2023-03-17T06:02:50.129Z,10.80
2023-03-17T06:03:22.447Z,10.37
2023-03-17T06:04:12.787Z,10.70
2023-03-17T06:04:44.518Z,10.87
2023-03-17T06:05:16.316Z,10.00
2023-03-17T06:05:48.568Z,9.03
2023-03-17T06:06:20.367Z,8.83
2023-03-17T06:06:52.121Z,8.33
2023-03-17T06:07:23.865Z,7.67
2023-03-17T06:07:56.585Z,7.50
2023-03-17T06:08:28.458Z,7.83
2023-03-17T06:09:01.252Z,7.60
2023-03-17T06:09:34.141Z,8.20
2023-03-17T06:10:06.951Z,9.40
2023-03-17T06:10:38.706Z,9.07
2023-03-17T06:11:10.681Z,9.50
2023-03-17T06:11:43.972Z,9.47
2023-03-17T06:12:16.239Z,9.27
2023-03-17T06:12:48.092Z,9.97
2023-03-17T06:13:20.154Z,8.53
2023-03-17T06:13:51.923Z,8.90
2023-03-17T06:14:25.955Z,9.27
2023-03-17T06:14:58.725Z,8.77
2023-03-17T06:15:30.844Z,9.27
2023-03-17T06:16:03.322Z,8.50
2023-03-17T06:16:35.289Z,8.07
2023-03-17T06:17:07.496Z,7.13
2023-03-17T06:17:39.383Z,7.77
2023-03-17T06:18:11.145Z,7.20
2023-03-17T06:18:43.197Z,8.63
2023-03-17T06:19:15.168Z,8.33
2023-03-17T06:19:49.364Z,8.30
2023-03-17T06:20:22.066Z,8.20
2023-03-17T06:20:53.804Z,7.20
2023-03-17T06:21:25.802Z,7.00
2023-03-17T06:21:57.611Z,6.83
2023-03-17T06:22:29.594Z,7.23
2023-03-17T06:23:05.088Z,6.13
2023-03-17T06:23:37.509Z,6.07
2023-03-17T06:24:09.868Z,6.23
2023-03-17T06:24:41.644Z,6.37
2023-03-17T06:25:13.793Z,6.10
2023-03-17T06:25:45.601Z,6.30
2023-03-17T06:26:17.414Z,5.83
2023-03-17T06:26:49.156Z,5.40
2023-03-17T06:27:21.036Z,5.77
2023-03-17T06:27:54.900Z,5.73
2023-03-17T06:28:26.649Z,6.33
2023-03-17T06:28:58.360Z,7.47
2023-03-17T06:29:30.155Z,7.77
2023-03-17T06:30:02.017Z,7.50
2023-03-17T06:30:35.384Z,6.67
2023-03-17T06:31:08.970Z,6.73
2023-03-17T06:31:40.862Z,6.00
2023-03-17T06:32:20.192Z,7.07
2023-03-17T06:32:52.700Z,7.50
2023-03-17T06:33:25.551Z,7.60
2023-03-17T06:33:57.642Z,6.90
2023-03-17T06:34:30.029Z,6.27
2023-03-17T06:35:02.287Z,6.33
2023-03-17T06:35:35.145Z,6.40
2023-03-17T06:36:08.228Z,6.13
2023-03-17T06:36:41.632Z,5.73
2023-03-17T06:37:13.404Z,5.60
2023-03-17T06:37:45.297Z,5.47
2023-03-17T06:38:17.551Z,5.27
2023-03-17T06:38:49.400Z,5.63
2023-03-17T06:39:21.228Z,5.97
2023-03-17T06:39:53.100Z,5.80
2023-03-17T06:40:24.942Z,5.70
2023-03-17T06:40:58.061Z,5.83
2023-03-17T06:41:29.851Z,4.93
2023-03-17T06:42:01.677Z,5.37
2023-03-17T06:42:33.503Z,6.30
2023-03-17T06:43:05.421Z,6.43
2023-03-17T06:43:37.604Z,6.00
2023-03-17T06:44:10.126Z,5.83
2023-03-17T06:44:42.111Z,5.70
2023-03-17T06:45:14.368Z,6.53
2023-03-17T06:45:47.017Z,6.00
2023-03-17T06:46:18.855Z,6.80
2023-03-17T06:46:51.291Z,6.83
2023-03-17T06:47:25.511Z,6.67
2023-03-17T06:47:57.798Z,6.93
2023-03-17T06:48:29.651Z,7.13
2023-03-17T06:49:01.917Z,6.70
2023-03-17T06:49:34.072Z,6.53
2023-03-17T06:50:07.803Z,7.33
2023-03-17T06:50:39.670Z,8.17
2023-03-17T06:51:11.657Z,8.37
2023-03-17T06:51:43.428Z,7.20
2023-03-17T06:52:15.251Z,6.97
2023-03-17T06:52:47.083Z,6.43
2023-03-17T06:53:18.932Z,6.73
2023-03-17T06:53:50.781Z,7.23
2023-03-17T06:54:25.404Z,6.20
2023-03-17T06:54:57.549Z,5.90
2023-03-17T06:55:29.799Z,6.17
2023-03-17T06:56:01.763Z,5.87
2023-03-17T06:56:34.370Z,5.97
2023-03-17T06:57:06.147Z,5.90
2023-03-17T06:57:38.086Z,6.30
2023-03-17T06:58:10.721Z,7.50
2023-03-17T06:58:42.814Z,7.23
2023-03-17T06:59:14.614Z,6.33
2023-03-17T06:59:46.357Z,17.63
2023-03-17T07:00:19.671Z,12.50
2023-03-17T07:00:54.196Z,7.47
2023-03-17T07:01:27.550Z,7.53
2023-03-17T07:02:00.518Z,6.33
2023-03-17T07:02:33.797Z,5.57
2023-03-17T07:03:06.108Z,6.97
2023-03-17T07:03:38.601Z,6.30
2023-03-17T07:04:10.465Z,6.30
2023-03-17T07:04:42.431Z,6.07
2023-03-17T07:05:14.230Z,5.73
2023-03-17T07:05:46.900Z,6.20
2023-03-17T07:06:18.660Z,5.70
2023-03-17T07:06:51.699Z,6.40
2023-03-17T07:07:24.985Z,6.33
2023-03-17T07:07:56.782Z,6.50
2023-03-17T07:08:30.892Z,6.43
2023-03-17T07:09:03.742Z,6.90
2023-03-17T07:09:35.620Z,6.70
2023-03-17T07:10:10.475Z,6.67
2023-03-17T07:10:44.375Z,6.57
2023-03-17T07:11:17.197Z,6.77
2023-03-17T07:11:49.711Z,6.47
2023-03-17T07:12:21.895Z,6.43
2023-03-17T07:12:53.945Z,6.73
2023-03-17T07:13:26.006Z,6.03
2023-03-17T07:13:57.847Z,5.67
2023-03-17T07:14:29.734Z,5.53
2023-03-17T07:15:01.711Z,5.83
2023-03-17T07:15:35.887Z,6.23
2023-03-17T07:16:08.226Z,6.57
2023-03-17T07:16:40.450Z,6.40
2023-03-17T07:17:14.612Z,6.63